Skip Navigation LinksHome page > Weather > Current weather Skip Navigation Links

Current Weather

Central Park, New York

For information only: do not use for flight planning or navigation.
Latest weather
Observation time Wednesday, February 22, 2017 2:51 AM EST
Local time Wednesday, February 22, 2017 3:21 AM EST
Flight conditions Visual Meteorological Conditions
Winds
Wind direction variable
Wind speed 6 mph
Visibility 10 mi.
Sky condition
Ceiling unlimited
Sky clear
Temperature 43°F
Dewpoint 34°F
Altimeter 30.09 in.Hg
Derived measurements
Relative humidity 70%
Wind chill 39°F
Density altitude -1010 ft.
Sea-level pressure 30.06 in.Hg
Remarks
Fully automated report.
System requires maintenance.
Automated weather observing station with precipitation discriminator.
METAR KNYC 220751Z AUTO VRB05KT 10SM CLR 06/01 A3009 RMK AO2 SLP181 T00610011 $

Settings

Location code

InnerDrive.Weather 4.0.6144.1 Release CLR 4.0.30319.34209
Copyright ©2015 Inner Drive Technology. All rights reserved. Portions Copyright ©1986-2015 David Braverman.

Find weather

Site navigation


Skip Navigation Links

Place info

Page info

PayPal - The safer, easier way to pay online!

Return home.

Copyright ©2017 Inner Drive Technology. Purveyors of fine, hand-crafted computer software. Page printed 2017-02-22T08:21:54 UTC.